createdAt,value
2022-09-24T00:01:41.194Z,8.53
2022-09-24T00:04:11.974Z,8.43
2022-09-24T00:06:44.551Z,8.52
2022-09-24T00:09:17.358Z,8.52
2022-09-24T00:11:45.372Z,8.47
2022-09-24T00:14:12.489Z,8.42
2022-09-24T00:16:40.475Z,8.42
2022-09-24T00:19:06.949Z,8.49
2022-09-24T00:21:35.377Z,8.51
2022-09-24T00:24:05.213Z,8.44
2022-09-24T00:26:49.885Z,8.53
2022-09-24T00:29:20.360Z,8.49
2022-09-24T00:31:47.689Z,8.47
2022-09-24T00:34:16.776Z,8.48
2022-09-24T00:36:46.180Z,8.58
2022-09-24T00:39:13.550Z,8.68
2022-09-24T00:41:44.878Z,8.60
2022-09-24T00:44:54.619Z,8.48
2022-09-24T00:47:26.110Z,8.54
2022-09-24T00:49:59.033Z,8.48
2022-09-24T00:52:27.879Z,8.60
2022-09-24T00:54:54.991Z,8.59
2022-09-24T00:57:22.587Z,8.58
2022-09-24T00:59:49.039Z,8.62
2022-09-24T01:02:17.887Z,8.50
2022-09-24T01:04:47.017Z,8.39
2022-09-24T01:07:15.775Z,8.46
2022-09-24T01:09:42.382Z,8.54
2022-09-24T01:12:49.204Z,8.51
2022-09-24T01:15:27.645Z,8.44
2022-09-24T01:18:03.213Z,8.55
2022-09-24T01:20:48.548Z,8.52
2022-09-24T01:23:20.922Z,8.47
2022-09-24T01:26:00.167Z,8.38
2022-09-24T01:28:29.582Z,8.43
2022-09-24T01:31:04.009Z,8.39
2022-09-24T01:33:33.815Z,8.36
2022-09-24T01:36:08.447Z,8.34
2022-09-24T01:38:42.438Z,8.27
2022-09-24T01:41:16.026Z,8.24
2022-09-24T01:43:43.715Z,8.31
2022-09-24T01:46:16.938Z,8.30
2022-09-24T01:48:50.902Z,8.29
2022-09-24T01:51:26.680Z,8.32
2022-09-24T01:54:03.822Z,8.23
2022-09-24T01:56:45.323Z,8.36
2022-09-24T01:59:33.026Z,8.30
2022-09-24T02:02:27.727Z,8.36
2022-09-24T02:05:35.641Z,8.22
2022-09-24T02:08:04.792Z,8.23
2022-09-24T02:10:42.330Z,8.42
2022-09-24T02:13:13.992Z,8.27
2022-09-24T02:15:47.447Z,8.26
2022-09-24T02:18:22.038Z,8.26
2022-09-24T02:20:58.013Z,8.20
2022-09-24T02:23:28.464Z,8.17
2022-09-24T02:26:04.301Z,8.09
2022-09-24T02:28:32.885Z,8.09
2022-09-24T02:31:08.232Z,8.19
2022-09-24T02:33:55.375Z,8.14
2022-09-24T02:36:24.988Z,7.98
2022-09-24T02:38:52.407Z,8.07
2022-09-24T02:41:24.053Z,8.12
2022-09-24T02:43:51.215Z,7.98
2022-09-24T02:46:20.963Z,8.02
2022-09-24T02:48:47.559Z,8.11
2022-09-24T02:51:14.335Z,8.07
2022-09-24T02:53:43.073Z,8.14
2022-09-24T02:56:11.760Z,8.09
2022-09-24T02:58:41.018Z,8.22
2022-09-24T03:01:07.467Z,8.25
2022-09-24T03:03:34.022Z,7.94
2022-09-24T03:06:03.049Z,7.76
2022-09-24T03:08:31.222Z,7.73
2022-09-24T03:10:57.877Z,7.77
2022-09-24T03:13:24.334Z,7.79
2022-09-24T03:15:50.925Z,7.71
2022-09-24T03:18:17.621Z,7.68
2022-09-24T03:20:44.581Z,7.69
2022-09-24T03:23:13.256Z,7.60
2022-09-24T03:25:39.728Z,7.60
2022-09-24T03:28:06.183Z,7.56
2022-09-24T03:30:51.251Z,7.42
2022-09-24T03:33:19.915Z,7.60
2022-09-24T03:35:51.173Z,7.57
2022-09-24T03:38:17.612Z,7.68
2022-09-24T03:40:46.461Z,7.63
2022-09-24T03:43:13.023Z,7.49
2022-09-24T03:45:39.435Z,7.48
2022-09-24T03:48:06.577Z,7.57
2022-09-24T03:50:36.344Z,7.55
2022-09-24T03:53:02.972Z,7.53
2022-09-24T03:55:29.546Z,7.60
2022-09-24T03:57:56.021Z,7.61
2022-09-24T04:00:24.861Z,7.51
2022-09-24T04:02:51.437Z,7.63
2022-09-24T04:05:17.919Z,7.48
2022-09-24T04:07:45.026Z,7.52
2022-09-24T04:10:12.384Z,7.55
2022-09-24T04:12:38.844Z,7.67
2022-09-24T04:15:10.229Z,7.63
2022-09-24T04:17:36.641Z,7.60
2022-09-24T04:20:03.219Z,7.66
2022-09-24T04:22:29.667Z,7.78
2022-09-24T04:24:57.690Z,7.71
2022-09-24T04:27:24.302Z,7.76
2022-09-24T04:29:54.218Z,7.78
2022-09-24T04:32:20.656Z,7.66
2022-09-24T04:34:49.413Z,7.72
2022-09-24T04:37:18.181Z,7.70
2022-09-24T04:39:44.595Z,7.73
2022-09-24T04:42:18.197Z,7.78
2022-09-24T04:44:48.848Z,7.78
2022-09-24T04:47:17.649Z,7.70
2022-09-24T04:49:45.798Z,7.77
2022-09-24T04:52:15.670Z,7.73
2022-09-24T04:54:46.640Z,7.70
2022-09-24T04:57:16.477Z,7.81
2022-09-24T04:59:44.290Z,7.65
2022-09-24T05:02:10.841Z,7.62
2022-09-24T05:04:40.125Z,7.69
2022-09-24T05:07:08.839Z,7.59
2022-09-24T05:09:38.003Z,7.71
2022-09-24T05:12:05.118Z,7.65
2022-09-24T05:14:31.644Z,7.58
2022-09-24T05:16:58.133Z,7.51
2022-09-24T05:19:24.757Z,7.43
2022-09-24T05:21:53.701Z,7.61
2022-09-24T05:24:20.145Z,7.71
2022-09-24T05:27:05.213Z,7.72
2022-09-24T05:29:31.641Z,7.79
2022-09-24T05:31:58.140Z,7.76
2022-09-24T05:34:24.541Z,7.70
2022-09-24T05:36:50.940Z,7.86
2022-09-24T05:39:22.316Z,7.96
2022-09-24T05:41:53.550Z,8.05
2022-09-24T05:44:22.352Z,8.18
2022-09-24T05:46:50.004Z,8.16
2022-09-24T05:49:18.925Z,8.18
2022-09-24T05:51:47.869Z,8.13
2022-09-24T05:54:14.300Z,8.19
2022-09-24T05:56:46.673Z,8.20
2022-09-24T05:59:15.974Z,8.20
2022-09-24T06:01:42.516Z,8.32
2022-09-24T06:04:11.653Z,8.36
2022-09-24T06:06:40.507Z,8.43
2022-09-24T06:09:08.908Z,8.82
2022-09-24T06:11:41.220Z,9.15
2022-09-24T06:14:08.614Z,9.46
2022-09-24T06:16:37.745Z,9.50
2022-09-24T06:19:09.225Z,9.59
2022-09-24T06:21:38.311Z,9.59
2022-09-24T06:24:07.445Z,9.55
2022-09-24T06:26:33.949Z,9.91
2022-09-24T06:29:05.090Z,10.04
2022-09-24T06:31:34.775Z,10.00
2022-09-24T06:34:03.826Z,9.96
2022-09-24T06:36:32.695Z,10.15
2022-09-24T06:39:01.976Z,10.45
2022-09-24T06:41:28.574Z,10.73
2022-09-24T06:43:55.756Z,11.06
2022-09-24T06:46:27.052Z,11.20
2022-09-24T06:48:56.432Z,11.34
2022-09-24T06:51:25.264Z,11.49
2022-09-24T06:53:54.894Z,11.86
2022-09-24T06:56:21.412Z,11.89
2022-09-24T06:58:47.992Z,11.90
2022-09-24T07:01:14.610Z,12.05
2022-09-24T07:03:43.420Z,12.19
2022-09-24T07:06:12.167Z,12.52
2022-09-24T07:08:38.651Z,13.62
2022-09-24T07:13:38.184Z,13.42
2022-09-24T07:16:04.806Z,13.19
2022-09-24T07:18:31.358Z,12.95
2022-09-24T07:20:58.234Z,13.06
2022-09-24T07:23:24.846Z,14.28
2022-09-24T07:25:56.162Z,15.23
2022-09-24T07:28:22.716Z,14.39
2022-09-24T07:30:57.309Z,14.02
2022-09-24T07:33:23.925Z,13.74
2022-09-24T07:35:51.055Z,14.02
2022-09-24T07:38:17.549Z,15.13
2022-09-24T07:40:46.298Z,15.92
2022-09-24T07:43:14.006Z,15.10
2022-09-24T07:45:41.784Z,15.15
2022-09-24T07:48:10.459Z,15.45
2022-09-24T07:50:41.797Z,15.69
2022-09-24T07:53:12.612Z,15.73
2022-09-24T07:55:41.624Z,15.89
2022-09-24T07:58:10.969Z,16.19
2022-09-24T08:00:37.477Z,17.00
2022-09-24T08:03:04.939Z,16.44
2022-09-24T08:05:32.908Z,16.26
2022-09-24T08:07:59.906Z,15.71
2022-09-24T08:10:28.274Z,15.28
2022-09-24T08:12:56.905Z,15.20
2022-09-24T08:15:23.785Z,14.94
2022-09-24T08:17:50.639Z,14.69
2022-09-24T08:20:17.172Z,14.52
2022-09-24T08:22:43.688Z,14.78
2022-09-24T08:25:10.158Z,14.68
2022-09-24T08:27:37.544Z,14.70
2022-09-24T08:30:07.780Z,14.70
2022-09-24T08:32:34.311Z,14.82
2022-09-24T08:35:00.743Z,14.69
2022-09-24T08:37:28.799Z,14.59
2022-09-24T08:39:55.377Z,14.87
2022-09-24T08:42:32.607Z,15.00
2022-09-24T08:45:18.071Z,15.02
2022-09-24T08:47:59.762Z,15.32
2022-09-24T08:50:31.575Z,15.33
2022-09-24T08:53:35.797Z,15.33
2022-09-24T08:56:05.670Z,15.35
2022-09-24T08:58:48.786Z,15.70
2022-09-24T09:01:25.820Z,15.60
2022-09-24T09:04:16.330Z,15.78
2022-09-24T09:07:07.037Z,15.78
2022-09-24T09:09:36.527Z,16.03
2022-09-24T09:12:08.737Z,16.06
2022-09-24T09:14:48.279Z,16.24
2022-09-24T09:17:23.863Z,16.16
2022-09-24T09:19:58.064Z,16.13
2022-09-24T09:22:30.918Z,16.31
2022-09-24T09:25:04.634Z,16.01
2022-09-24T09:27:31.468Z,15.90
2022-09-24T09:29:59.730Z,16.05
2022-09-24T09:32:35.165Z,16.05
2022-09-24T09:35:04.632Z,15.86
2022-09-24T09:37:45.421Z,15.91
2022-09-24T09:40:35.359Z,15.93
2022-09-24T09:43:07.792Z,15.81
2022-09-24T09:45:47.915Z,16.05
2022-09-24T09:48:16.626Z,15.98
2022-09-24T09:50:52.201Z,15.97
2022-09-24T09:53:21.178Z,16.09
2022-09-24T09:55:57.166Z,16.02
2022-09-24T09:59:03.479Z,15.92
2022-09-24T10:01:41.173Z,15.91
2022-09-24T10:04:31.153Z,16.10
2022-09-24T10:07:11.229Z,15.90
2022-09-24T10:09:39.182Z,15.96
2022-09-24T10:12:22.143Z,15.86
2022-09-24T10:15:03.655Z,15.91
2022-09-24T10:17:42.578Z,15.94
2022-09-24T10:20:14.138Z,15.89
2022-09-24T10:22:45.770Z,15.95
2022-09-24T10:25:28.176Z,16.04
2022-09-24T10:28:18.865Z,16.00
2022-09-24T10:30:54.114Z,16.05
2022-09-24T10:33:20.958Z,16.02
2022-09-24T10:35:47.920Z,16.17
2022-09-24T10:38:22.133Z,16.14
2022-09-24T10:40:48.721Z,16.13
2022-09-24T10:43:20.452Z,16.19
2022-09-24T10:46:17.486Z,16.40
2022-09-24T10:48:51.177Z,16.37
2022-09-24T10:51:29.413Z,16.60
2022-09-24T10:54:16.221Z,16.50
2022-09-24T10:56:51.649Z,16.56
2022-09-24T10:59:36.967Z,16.54
2022-09-24T11:02:18.828Z,16.61
2022-09-24T11:05:24.754Z,16.87
2022-09-24T11:08:09.260Z,16.90
2022-09-24T11:10:55.014Z,16.88
2022-09-24T11:13:40.532Z,16.78
2022-09-24T11:16:16.231Z,16.79
2022-09-24T11:18:51.037Z,16.81
2022-09-24T11:21:45.648Z,16.77
2022-09-24T11:24:40.371Z,16.82
2022-09-24T11:27:41.436Z,16.90
2022-09-24T11:30:08.131Z,16.88
2022-09-24T11:33:14.149Z,16.71
2022-09-24T11:35:53.008Z,16.67
2022-09-24T11:38:41.330Z,16.64
2022-09-24T11:41:11.800Z,16.66
2022-09-24T11:43:44.585Z,16.58
2022-09-24T11:46:52.683Z,16.45
2022-09-24T11:49:28.548Z,16.65
2022-09-24T11:52:25.146Z,16.48
2022-09-24T11:55:45.895Z,16.61
2022-09-24T11:58:27.315Z,16.51
2022-09-24T12:00:59.129Z,16.69
2022-09-24T12:03:53.132Z,16.68
2022-09-24T12:06:43.083Z,16.64
2022-09-24T12:09:32.081Z,16.45
2022-09-24T12:12:10.872Z,16.31
2022-09-24T12:14:50.794Z,16.36
2022-09-24T12:17:28.329Z,16.37
2022-09-24T12:20:03.494Z,16.40
2022-09-24T12:22:32.825Z,16.21
2022-09-24T12:25:00.485Z,16.02
2022-09-24T12:27:38.199Z,15.94
2022-09-24T12:31:01.376Z,16.13
2022-09-24T12:33:35.867Z,15.81
2022-09-24T12:36:04.330Z,15.89
2022-09-24T12:38:42.415Z,15.70
2022-09-24T12:41:29.627Z,15.66
2022-09-24T12:44:19.651Z,15.59
2022-09-24T12:46:55.776Z,15.60
2022-09-24T12:49:25.347Z,15.63
2022-09-24T12:51:53.474Z,15.60
2022-09-24T12:54:28.440Z,15.65
2022-09-24T12:57:16.819Z,15.65
2022-09-24T12:59:47.727Z,15.58
2022-09-24T13:02:43.456Z,15.59
2022-09-24T13:05:17.330Z,15.64
2022-09-24T13:07:54.409Z,15.73
2022-09-24T13:10:27.709Z,15.89
2022-09-24T13:12:54.350Z,15.82
2022-09-24T13:15:28.034Z,15.88
2022-09-24T13:18:04.267Z,15.92
2022-09-24T13:20:32.869Z,15.97
2022-09-24T13:23:17.520Z,15.99
2022-09-24T13:25:54.758Z,15.86
2022-09-24T13:28:35.764Z,15.95
2022-09-24T13:31:22.414Z,16.11
2022-09-24T13:33:53.665Z,16.11
2022-09-24T13:36:29.528Z,16.18
2022-09-24T13:38:58.104Z,16.16
2022-09-24T13:41:41.231Z,16.21
2022-09-24T13:44:14.072Z,16.20
2022-09-24T13:46:44.981Z,16.20
2022-09-24T13:49:19.335Z,16.16
2022-09-24T13:51:51.700Z,16.06
2022-09-24T13:54:34.827Z,16.01
2022-09-24T13:57:14.074Z,15.92
2022-09-24T13:59:40.584Z,16.07
2022-09-24T14:02:25.541Z,16.03
2022-09-24T14:05:01.340Z,15.96
2022-09-24T14:07:28.763Z,16.01
2022-09-24T14:10:13.612Z,16.00
2022-09-24T14:12:42.517Z,16.08
2022-09-24T14:15:17.141Z,16.11
2022-09-24T14:17:55.858Z,15.93
2022-09-24T14:20:23.050Z,15.93
2022-09-24T14:22:49.963Z,16.01
2022-09-24T14:25:27.166Z,15.91
2022-09-24T14:27:59.674Z,15.87
2022-09-24T14:30:31.565Z,15.95
2022-09-24T14:33:04.945Z,15.87
2022-09-24T14:35:38.547Z,15.92
2022-09-24T14:38:09.553Z,15.90
2022-09-24T14:40:52.749Z,15.96
2022-09-24T14:43:37.123Z,15.94
2022-09-24T14:46:12.817Z,16.10
2022-09-24T14:48:41.102Z,16.17
2022-09-24T14:51:31.239Z,16.04
2022-09-24T14:54:03.647Z,16.01
2022-09-24T14:56:36.245Z,16.13
2022-09-24T14:59:14.630Z,16.10
2022-09-24T15:01:41.243Z,16.09
2022-09-24T15:04:24.587Z,16.15
2022-09-24T15:06:51.378Z,16.11
2022-09-24T15:09:30.460Z,16.05
2022-09-24T15:12:08.888Z,16.01
2022-09-24T15:14:37.952Z,15.91
2022-09-24T15:17:21.515Z,15.86
2022-09-24T15:19:48.162Z,15.89
2022-09-24T15:22:14.963Z,15.78
2022-09-24T15:24:41.568Z,15.72
2022-09-24T15:27:29.932Z,15.71
2022-09-24T15:29:59.578Z,15.73
2022-09-24T15:32:35.205Z,15.83
2022-09-24T15:35:07.694Z,15.79
2022-09-24T15:37:38.216Z,15.77
2022-09-24T15:40:24.639Z,15.83
2022-09-24T15:42:51.957Z,15.86
2022-09-24T15:45:23.558Z,15.86
2022-09-24T15:47:55.989Z,15.85
2022-09-24T15:50:23.999Z,15.74
2022-09-24T15:52:55.579Z,15.85
2022-09-24T15:55:24.029Z,15.71
2022-09-24T15:57:50.610Z,15.63
2022-09-24T16:00:19.756Z,15.53
2022-09-24T16:02:51.445Z,15.47
2022-09-24T16:05:18.762Z,15.38
2022-09-24T16:07:45.509Z,15.32
2022-09-24T16:10:13.660Z,15.25
2022-09-24T16:12:42.844Z,15.20
2022-09-24T16:15:14.272Z,15.18
2022-09-24T16:17:41.037Z,15.19
2022-09-24T16:20:09.606Z,15.07
2022-09-24T16:22:36.137Z,15.07
2022-09-24T16:25:02.595Z,15.07
2022-09-24T16:27:29.780Z,15.12
2022-09-24T16:29:56.212Z,15.11
2022-09-24T16:32:22.603Z,14.97
2022-09-24T16:34:49.124Z,14.93
2022-09-24T16:37:17.247Z,14.92
2022-09-24T16:39:43.912Z,15.11
2022-09-24T16:42:12.944Z,14.89
2022-09-24T16:44:39.390Z,14.89
2022-09-24T16:47:05.839Z,14.78
2022-09-24T16:49:32.351Z,14.61
2022-09-24T16:51:58.758Z,14.82
2022-09-24T16:54:25.354Z,14.81
2022-09-24T16:56:52.178Z,14.69
2022-09-24T16:59:19.163Z,14.58
2022-09-24T17:01:45.711Z,14.60
2022-09-24T17:04:12.249Z,14.62
2022-09-24T17:06:40.997Z,14.54
2022-09-24T17:09:26.093Z,14.38
2022-09-24T17:11:52.570Z,14.30
2022-09-24T17:14:22.398Z,14.32
2022-09-24T17:16:48.888Z,14.47
2022-09-24T17:19:15.380Z,14.47
2022-09-24T17:21:43.164Z,14.36
2022-09-24T17:24:10.280Z,14.33
2022-09-24T17:26:38.506Z,14.29
2022-09-24T17:29:05.325Z,14.22
2022-09-24T17:31:34.678Z,14.24
2022-09-24T17:34:04.705Z,14.21
2022-09-24T17:36:33.017Z,14.24
2022-09-24T17:39:01.060Z,14.21
2022-09-24T17:41:28.760Z,14.22
2022-09-24T17:43:58.723Z,14.18
2022-09-24T17:46:30.767Z,14.06
2022-09-24T17:48:59.759Z,14.12
2022-09-24T17:51:34.051Z,14.17
2022-09-24T17:54:03.525Z,14.17
2022-09-24T17:56:34.366Z,14.11
2022-09-24T17:59:00.885Z,14.31
2022-09-24T18:01:37.987Z,14.18
2022-09-24T18:04:06.662Z,14.13
2022-09-24T18:06:39.439Z,14.08
2022-09-24T18:09:07.262Z,14.10
2022-09-24T18:11:41.343Z,14.09
2022-09-24T18:14:14.401Z,14.00
2022-09-24T18:16:41.428Z,13.93
2022-09-24T18:19:09.978Z,13.87
2022-09-24T18:21:36.947Z,13.98
2022-09-24T18:24:03.728Z,14.07
2022-09-24T18:26:35.512Z,14.08
2022-09-24T18:29:11.371Z,14.07
2022-09-24T18:31:41.270Z,14.06
2022-09-24T18:34:09.688Z,14.11
2022-09-24T18:36:41.001Z,14.14
2022-09-24T18:39:12.047Z,14.11
2022-09-24T18:41:39.243Z,13.97
2022-09-24T18:44:06.182Z,13.91
2022-09-24T18:46:33.696Z,13.87
2022-09-24T18:49:02.113Z,13.84
2022-09-24T18:51:34.524Z,13.88
2022-09-24T18:54:06.863Z,13.86
2022-09-24T18:56:33.615Z,13.81
2022-09-24T18:59:07.202Z,13.79
2022-09-24T19:01:36.914Z,13.93
2022-09-24T19:04:03.884Z,13.72
2022-09-24T19:06:36.264Z,13.83
2022-09-24T19:09:04.937Z,13.79
2022-09-24T19:11:31.812Z,13.76
2022-09-24T19:13:58.710Z,13.73
2022-09-24T19:16:25.682Z,13.74
2022-09-24T19:18:53.551Z,13.74
2022-09-24T19:21:20.923Z,13.75
2022-09-24T19:23:49.535Z,13.72
2022-09-24T19:26:24.419Z,13.69
2022-09-24T19:28:51.898Z,13.68
2022-09-24T19:31:20.318Z,13.72
2022-09-24T19:33:46.906Z,13.61
2022-09-24T19:36:13.908Z,13.55
2022-09-24T19:38:41.659Z,13.55
2022-09-24T19:41:19.147Z,13.66
2022-09-24T19:43:45.577Z,13.65
2022-09-24T19:46:14.644Z,13.67
2022-09-24T19:48:43.456Z,13.59
2022-09-24T19:51:24.845Z,13.62
2022-09-24T19:53:56.937Z,13.59
2022-09-24T19:56:25.350Z,13.57
2022-09-24T19:58:53.664Z,13.56
2022-09-24T20:01:22.263Z,13.57
2022-09-24T20:03:49.478Z,13.63
2022-09-24T20:06:25.246Z,13.69
2022-09-24T20:08:51.860Z,13.58
2022-09-24T20:11:22.335Z,13.58
2022-09-24T20:13:50.411Z,13.67
2022-09-24T20:16:20.222Z,13.68
2022-09-24T20:18:51.349Z,13.68
2022-09-24T20:21:19.047Z,13.60
2022-09-24T20:23:47.140Z,13.61
2022-09-24T20:26:33.345Z,13.59
2022-09-24T20:29:00.181Z,13.69
2022-09-24T20:31:26.669Z,13.53
2022-09-24T20:33:53.468Z,13.59
2022-09-24T20:36:24.117Z,13.61
2022-09-24T20:38:51.496Z,13.50
2022-09-24T20:41:20.247Z,13.43
2022-09-24T20:43:47.207Z,13.41
2022-09-24T20:46:21.945Z,13.48
2022-09-24T20:48:48.520Z,13.45
2022-09-24T20:51:18.038Z,13.45
2022-09-24T20:53:46.148Z,13.49
2022-09-24T20:56:12.649Z,13.46
2022-09-24T20:58:41.339Z,13.44
2022-09-24T21:01:09.895Z,13.43
2022-09-24T21:03:44.447Z,13.45
2022-09-24T21:06:15.403Z,13.44
2022-09-24T21:08:44.218Z,13.41
2022-09-24T21:11:21.818Z,13.38
2022-09-24T21:13:51.339Z,13.40
2022-09-24T21:16:26.081Z,13.29
2022-09-24T21:18:54.450Z,13.21
2022-09-24T21:21:32.835Z,13.23
2022-09-24T21:24:00.375Z,13.24
2022-09-24T21:26:28.244Z,13.29
2022-09-24T21:28:58.099Z,13.25
2022-09-24T21:31:28.731Z,13.27
2022-09-24T21:33:56.051Z,13.26
2022-09-24T21:36:29.225Z,13.25
2022-09-24T21:39:04.201Z,13.21
2022-09-24T21:41:33.953Z,13.19
2022-09-24T21:44:04.124Z,13.19
2022-09-24T21:46:33.185Z,13.19
2022-09-24T21:49:00.981Z,13.11
2022-09-24T21:51:30.130Z,13.12
2022-09-24T21:54:02.200Z,13.09
2022-09-24T21:56:30.469Z,13.06
2022-09-24T21:58:57.565Z,13.07
2022-09-24T22:01:30.211Z,13.15
2022-09-24T22:03:59.144Z,13.11
2022-09-24T22:06:28.915Z,13.24
2022-09-24T22:08:57.913Z,13.14
2022-09-24T22:11:26.282Z,13.13
2022-09-24T22:13:53.536Z,13.15
2022-09-24T22:16:20.870Z,13.17
2022-09-24T22:18:47.402Z,13.18
2022-09-24T22:21:15.289Z,13.16
2022-09-24T22:23:44.555Z,13.03
2022-09-24T22:26:14.786Z,13.04
2022-09-24T22:28:42.710Z,13.07
2022-09-24T22:31:12.156Z,13.08
2022-09-24T22:33:57.347Z,13.05
2022-09-24T22:36:24.367Z,13.07
2022-09-24T22:38:56.769Z,13.06
2022-09-24T22:41:24.529Z,13.10
2022-09-24T22:43:52.098Z,13.13
2022-09-24T22:46:19.096Z,13.10
2022-09-24T22:48:47.302Z,13.13
2022-09-24T22:51:14.636Z,13.24
2022-09-24T22:53:41.735Z,13.22
2022-09-24T22:56:14.542Z,13.21
2022-09-24T22:58:44.735Z,13.10
2022-09-24T23:01:13.572Z,13.11
2022-09-24T23:03:40.268Z,13.17
2022-09-24T23:06:07.696Z,13.15
2022-09-24T23:08:35.997Z,13.19
2022-09-24T23:11:36.904Z,13.21
2022-09-24T23:14:09.428Z,13.22
2022-09-24T23:16:37.357Z,13.17
2022-09-24T23:19:07.376Z,13.12
2022-09-24T23:21:34.535Z,13.05
2022-09-24T23:24:04.371Z,13.08
2022-09-24T23:26:31.459Z,13.02
2022-09-24T23:29:01.743Z,13.00
2022-09-24T23:31:33.035Z,13.05
2022-09-24T23:34:01.170Z,13.10
2022-09-24T23:36:30.958Z,13.09
2022-09-24T23:39:01.443Z,13.04
2022-09-24T23:41:29.053Z,13.00
2022-09-24T23:43:55.524Z,13.00
2022-09-24T23:46:22.007Z,13.01
2022-09-24T23:48:48.443Z,12.99
2022-09-24T23:51:14.918Z,12.94
2022-09-24T23:53:43.635Z,13.00
2022-09-24T23:56:12.189Z,12.98
2022-09-24T23:58:42.007Z,12.94
